• Join FlightAware (Why Join?)
  • Login
  • US Flag 
04:12PM EST


 

Airport Tracker/Info


-or-


 

Live Flight TrackerFlight Track Log ✈ ASQ4253 ✈ 09-Jun-2013 ✈ KCAE - KIAH

Flight Track Log - Related Links

Times and Time Zones

All times are in EDT time to prevent confusion due to time zone crossing. See the ASQ4253 flight status page for this flight to view local times or setup timezone preferences in your user account.

Time Position Orientation Groundspeed Altitude Reporting Facility
EDT Latitude Longitude Course Direction KTS MPH feet Rate Location/Type
09:10PM 33.8739 -81.1017 194° South 222 255 3,200  Level Jacksonville Center
09:11PM 33.8139 -81.1378 207° Southwest 233 268 5,900 2,520 Climbing Jacksonville Center
09:12PM 33.7603 -81.1889 218° Southwest 238 274 8,400 2,340 Climbing Jacksonville Center
09:13PM 33.7172 -81.2447 227° Southwest 253 291 10,700 2,100 Climbing Jacksonville Center
09:14PM 33.6681 -81.3128 229° Southwest 266 306 12,700 1,800 Climbing Jacksonville Center
09:15PM 33.6795 -81.6322 237° Southwest  Level FlightAware Approximate
09:15PM 33.6106 -81.3936 230° Southwest 278 320 14,400  Level Jacksonville Center
09:16PM 33.5594 -81.4819 235° Southwest 303 349 15,800 1,380 Climbing Jacksonville Center
09:17PM 33.5144 -81.5747 240° Southwest 322 371 17,200 1,200 Climbing Jacksonville Center
09:19PM 33.4508 -81.7208 242° Southwest 344 396 18,900 1,200 Climbing Atlanta Center
09:20PM 33.4175 -81.8264 249° West 344 396 20,300 1,380 Climbing Atlanta Center
09:21PM 33.3900 -81.9239 251° West 344 396 21,700 1,320 Climbing Atlanta Center
09:22PM 33.3542 -82.0394 250° West 349 402 23,000 600 Climbing Atlanta Center
09:23PM 33.3225 -82.1444 250° West 360 414 23,000 240 Level Atlanta Center
09:24PM 33.2806 -82.2769 249° West 379 436 23,500 480 Climbing Atlanta Center
09:25PM 33.2447 -82.3969 250° West 392 451 24,000 240 Climbing Atlanta Center
09:26PM 33.2025 -82.5244 248° West 397 457 24,000  Level Atlanta Center
09:27PM 33.1625 -82.6617 251° West 416 479 24,000  Level Atlanta Center
09:28PM 33.1264 -82.7961 252° West 428 493 24,000  Level Atlanta Center
09:29PM 33.0861 -82.9553 253° West 448 516 24,000  Level Atlanta Center
09:30PM 33.0578 -83.0647 253° West 454 522 24,000  Level Atlanta Center
09:31PM 33.0294 -83.2114 257° West 438 504 24,000  Level Atlanta Center
09:32PM 32.9972 -83.3628 256° West 433 498 24,000  Level Atlanta Center
09:33PM 32.9603 -83.4992 252° West 428 493 24,000  Level Atlanta Center
09:34PM 32.9169 -83.6306 249° West 434 499 24,000  Level Atlanta Center
09:35PM 32.8733 -83.7667 249° West 434 499 24,000  Level Atlanta Center
09:36PM 32.8319 -83.8978 249° West 434 499 24,000  Level Atlanta Center
09:37PM 32.7881 -84.0289 248° West 428 493 24,000  Level Atlanta Center
09:38PM 32.7442 -84.1575 248° West 433 498 24,000  Level Atlanta Center
09:39PM 32.7003 -84.2881 248° West 433 498 24,000  Level Atlanta Center
09:40PM 32.6581 -84.4189 249° West 433 498 24,000  Level Atlanta Center
09:41PM 32.6139 -84.5517 248° West 433 498 24,000  Level Atlanta Center
09:42PM 32.5672 -84.6822 247° West 427 491 24,000  Level Atlanta Center
09:43PM 32.5228 -84.8125 248° West 432 497 24,000  Level Atlanta Center
09:44PM 32.4822 -84.9228 246° West 426 490 24,000  Level Atlanta Center
09:45PM 32.4481 -85.0556 253° West 426 490 24,000  Level Atlanta Center
09:46PM 32.4008 -85.1853 247° West 431 496 24,000  Level Atlanta Center
09:47PM 32.3517 -85.3150 246° West 431 496 24,000  Level Atlanta Center
09:48PM 32.3064 -85.4444 248° West 431 496 24,000  Level Atlanta Center
09:49PM 32.2631 -85.5764 249° West 431 496 24,000  Level Atlanta Center
09:50PM 32.2156 -85.7033 246° West 431 496 24,000  Level Atlanta Center
09:51PM 32.1675 -85.8497 249° West 437 503 24,000  Level Atlanta Center
09:52PM 32.1217 -85.9761 247° West 432 497 24,000  Level Atlanta Center
09:53PM 32.0803 -86.0931 247° West 432 497 24,000  Level Atlanta Center
09:54PM 32.0297 -86.2364 247° West 432 497 24,000  Level Atlanta Center
09:55PM 31.9836 -86.3675 248° West 432 497 24,000  Level Atlanta Center
09:56PM 31.9392 -86.4983 248° West 432 497 24,000  Level Atlanta Center
09:57PM 31.8928 -86.6292 247° West 432 497 24,000  Level Atlanta Center
09:58PM 31.8461 -86.7600 247° West 432 497 24,000  Level Atlanta Center
09:59PM 31.7994 -86.8881 247° West 437 503 24,000  Level Atlanta Center
10:00PM 31.7503 -87.0208 246° West 432 497 24,000  Level Atlanta Center
10:02PM 31.6486 -87.3044 247° West 425 489 24,000  Level Houston Center
10:03PM 31.6028 -87.4297 247° West 420 483 24,000  Level Houston Center
10:04PM 31.5475 -87.5814 247° West 423 487 24,000  Level Houston Center
10:06PM 31.5022 -87.7072 247° West 423 487 24,000  Level Houston Center
10:07PM 31.4558 -87.8319 246° West 420 483 24,000  Level Houston Center
10:08PM 31.4044 -87.9533 244° Southwest 419 482 24,000  Level Houston Center
10:09PM 31.3319 -88.0603 232° Southwest 422 486 24,000  Level Houston Center
10:10PM 31.2628 -88.1664 233° Southwest 416 479 24,000  Level Houston Center
10:11PM 31.1917 -88.2731 232° Southwest 422 486 24,000  Level Houston Center
10:12PM 31.1078 -88.3978 232° Southwest 419 482 24,000  Level Houston Center
10:13PM 31.0378 -88.5019 232° Southwest 415 478 24,000  Level Houston Center
10:14PM 30.9675 -88.6067 232° Southwest 414 476 24,000  Level Houston Center
10:15PM 30.8956 -88.7136 232° Southwest 421 484 24,000  Level Houston Center
10:16PM 30.8275 -88.8219 234° Southwest 417 480 24,000  Level Houston Center
10:17PM 30.7575 -88.9483 237° Southwest 420 483 24,000  Level Houston Center
10:18PM 30.7014 -89.0678 241° Southwest 422 486 24,000  Level Houston Center
10:19PM 30.6450 -89.1872 241° Southwest 422 486 24,000  Level Houston Center
10:20PM 30.5881 -89.3039 240° Southwest 418 481 24,000 -60 Level Houston Center
10:21PM 30.5339 -89.4219 242° Southwest 416 479 23,900  Descending Houston Center
10:22PM 30.4767 -89.5403 241° Southwest 419 482 24,000  Climbing Houston Center
10:23PM 30.4222 -89.6561 241° Southwest 412 474 24,000  Level Houston Center
10:24PM 30.3658 -89.7700 240° Southwest 415 478 24,000  Level Houston Center
10:25PM 30.2950 -89.8972 237° Southwest 417 480 24,000  Level Houston Center
10:26PM 30.2331 -90.0089 237° Southwest 414 476 24,000  Level Houston Center
10:27PM 30.1722 -90.1208 238° Southwest 413 475 24,000  Level Houston Center
10:28PM 30.1103 -90.2339 238° Southwest 418 481 24,000  Level Houston Center
10:29PM 30.0508 -90.3481 239° Southwest 416 479 24,000  Level Houston Center
10:30PM 29.9894 -90.4603 238° Southwest 414 476 24,000  Level Houston Center
10:31PM 29.9297 -90.5747 239° Southwest 418 481 24,000  Level Houston Center
10:32PM 29.8703 -90.6872 239° Southwest 414 476 24,000  Level Houston Center
10:33PM 29.7978 -90.8250 239° Southwest 418 481 24,000  Level Houston Center
10:34PM 29.7397 -90.9381 239° Southwest 412 474 24,000  Level Houston Center
10:35PM 29.6711 -91.0469 234° Southwest 419 482 24,000  Level Houston Center
10:36PM 29.6022 -91.1528 233° Southwest 415 478 24,000  Level Houston Center
10:37PM 29.5350 -91.2597 234° Southwest 414 476 24,000  Level Houston Center
10:38PM 29.4922 -91.3817 248° West 413 475 24,000  Level Houston Center
10:39PM 29.4667 -91.5117 257° West 416 479 24,000  Level Houston Center
10:40PM 29.4503 -91.6442 262° West 419 482 24,000  Level Houston Center
10:41PM 29.4394 -91.7867 265° West 425 489 24,000  Level Houston Center
10:42PM 29.4261 -91.9217 264° West 427 491 24,000  Level Houston Center
10:43PM 29.4131 -92.0550 264° West 423 487 24,000  Level Houston Center
10:44PM 29.3936 -92.1861 260° West 417 480 24,000  Level Houston Center
10:45PM 29.3764 -92.3172 261° West 416 479 24,000  Level Houston Center
10:46PM 29.3669 -92.4500 265° West 417 480 24,000  Level Houston Center
10:47PM 29.3550 -92.5833 264° West 419 482 24,000  Level Houston Center
10:48PM 29.3483 -92.7178 267° West 422 486 24,000  Level Houston Center
10:49PM 29.3478 -92.8528 270° West 424 488 24,000  Level Houston Center
10:50PM 29.3536 -93.0172 272° West 429 494 24,000  Level Houston Center
10:51PM 29.3736 -93.1536 280° West 433 498 24,000  Level Houston Center
10:52PM 29.3925 -93.2908 279° West 434 499 24,000  Level Houston Center
10:53PM 29.4117 -93.4283 279° West 436 502 24,000 -600 Level Houston Center
10:54PM 29.4303 -93.5661 279° West 436 502 22,900 -1,320 Descending Houston Center
10:55PM 29.4483 -93.7000 279° West 429 494 21,400 -1,560 Descending Houston Center
10:56PM 29.4658 -93.8317 279° West 422 486 19,800 -1,500 Descending Houston Center
10:57PM 29.4833 -93.9647 279° West 421 484 18,400 -1,500 Descending Houston Center
10:58PM 29.4917 -94.0264 279° West 414 476 17,700 -1,620 Descending Houston Center
10:58PM 29.5014 -94.0936 279° West 418 481 16,800 -1,920 Descending Houston Center
10:59PM 29.5100 -94.1656 278° West 390 449 15,600 -2,100 Descending Houston Center
10:59PM 29.5167 -94.2128 279° West 403 464 14,700 -1,980 Descending Houston Center
11:00PM 29.5242 -94.2864 277° West 385 443 13,600 -1,680 Descending Houston Center
11:00PM 29.5342 -94.3317 284° West 388 447 13,000 -1,320 Descending Houston Center
11:01PM 29.5539 -94.3931 290° West 326 375 12,300 -1,140 Descending Houston Center
11:01PM 29.5694 -94.4261 298° West 343 395 11,900 -1,200 Descending Houston Center
11:02PM 29.5950 -94.4911 294° West 287 330 11,000 -1,200 Descending Houston Center
11:02PM 29.6044 -94.5106 299° West 301 346 10,700 -1,440 Descending Houston Center
11:03PM 29.6275 -94.5639 296° West 287 330 9,700 -1,620 Descending Houston Center
11:03PM 29.6394 -94.5919 296° West 288 331 9,100 -1,620 Descending Houston Center
11:04PM 29.6631 -94.6483 296° West 291 335 8,100 -1,920 Descending Houston Center
11:04PM 29.6919 -94.6819 315° West 282 325 7,200 -1,620 Descending Houston Center
11:05PM 29.7175 -94.7136 313° West 272 313 6,500 -1,500 Descending Houston Center
11:06PM 29.7464 -94.7425 319° Northwest 276 318 5,700 -1,620 Descending Houston Center
11:06PM 29.7717 -94.7742 313° West 278 320 4,900 -1,500 Descending Houston Center
11:07PM 29.8017 -94.8047 319° Northwest 279 321 4,200 -900 Descending Houston Center
11:07PM 29.8281 -94.8344 316° Northwest 279 321 4,000 -540 Descending Houston Center
11:08PM 29.8561 -94.8669 315° West 280 322 3,700 -840 Descending Houston Center
11:08PM 29.8783 -94.9222 295° West 254 292 3,000 -720 Descending Houston Center
11:09PM 29.8892 -94.9417 303° West 266 306 3,000  Level Houston Center
11:09PM 29.9097 -94.9883 297° West 260 299 3,000  Level Houston Center
11:10PM 29.9222 -95.0147 299° West 262 302 3,000  Level Houston Center
11:10PM 29.9494 -95.0750 298° West 264 304 3,000  Level Houston Center
11:11PM 29.9561 -95.0889 299° West 263 303 3,000 -240 Level Houston Center
11:11PM 29.9761 -95.1367 296° West 254 292 2,800 -360 Descending Houston Center